WEATHER DATA

YESTERDAY
Time Temp. Dewp. Hum. Wind dir Wind speed Wind gust Bar. 1h Prec. 24h Prec.
00:00 1.7 0.1 89 0 0.6 1.4 1000.8 0.1600 0.0000
00:11 1.8 0.2 89 6 0.8 1.9 1000.9 0.1600 0.2000
00:20 1.9 0.3 89 349 0.6 1.4 1001 0.1600 0.2000
00:30 1.9 0.1 88 128 0.6 1.4 1001.2 0.1600 0.2000
00:41 1.8 0 88 180 0.6 1.4 1001.2 0.1600 0.2000
00:51 1.7 -0.1 88 105 0.6 1.1 1001.3 0.3200 0.3000
01:00 1.6 -0.1 88 210 0.6 1.1 1001.3 0.1600 0.3000
01:10 1.6 -0.1 88 213 1.7 2.5 1001.2 0.1600 0.3000
01:21 1.5 -0.2 88 226 0.8 1.7 1001.3 0.1600 0.3000
01:31 1.4 -0.3 88 230 1.1 2.2 1001.3 0.1600 0.3000
01:40 1.5 -0.2 88 217 1.1 1.9 1001.3 0.0000 0.3000
01:51 1.5 -0.2 88 225 0.8 1.7 1001.1 0.1600 0.5000
02:01 1.5 -0.2 88 225 0.6 1.1 1001.2 0.1600 0.5000
02:11 1.5 -0.2 88 230 0.8 1.7 1001.5 0.1600 0.5000
02:20 1.6 -0.1 88 227 0.8 1.7 1001.6 0.1600 0.5000
02:31 1.4 -0.3 88 209 1.1 1.7 1001.7 0.1600 0.5000
02:41 1.1 -0.6 88 223 1.7 2.5 1001.7 0.0000 0.5000
02:51 1.1 -0.6 88 220 1.4 2.2 1001.6 0.0000 0.5000
03:02 1.1 -0.6 88 198 0.3 1.1 1001.6 0.0000 0.5000
03:11 1.3 -0.4 88 225 0.3 0.8 1001.6 0.0000 0.5000
03:21 1.3 -0.4 88 189 0.6 1.1 1001.4 0.0000 0.5000
03:31 1.2 -0.5 88 194 0.6 1.7 1001.4 0.0000 0.5000
03:42 1.5 -0.2 88 219 0.8 1.9 1001.2 0.0000 0.5000
03:51 1.7 -0.1 88 198 0.6 1.4 1001.3 0.0000 0.5000
04:01 2 0.1 87 196 0.6 1.9 1001.2 0.0000 0.5000
04:12 2.2 0.3 87 167 0.6 1.7 1001.3 0.0000 0.5000
04:22 2.2 0.1 86 164 0.6 1.1 1001.2 0.0000 0.5000
04:31 2.3 0 85 137 0.6 1.4 1001.3 0.0000 0.5000
04:41 2.3 0 85 198 0.6 1.1 1001.2 0.0000 0.5000
04:52 2.1 -0.3 84 135 0.3 1.4 1001.3 0.0000 0.5000
05:02 1.7 -0.6 84 235 0.6 1.4 1001.2 0.0000 0.5000
05:12 1.3 -0.8 85 232 1.1 2.2 1001.2 0.0000 0.5000
05:22 1 -1.1 85 229 2.2 3.3 1001.2 0.0000 0.5000
05:32 0.8 -1.1 86 214 0.3 1.1 1001.2 0.0000 0.5000
05:42 0.7 -1.2 86 0.3 1.1 1001.3 0.0000 0.5000
05:52 0.6 -1.3 86 204 0.8 1.7 1001.4 0.0000 0.5000
06:02 0.5 -1.4 86 213 1.4 2.2 1001.6 0.0000 0.5000
06:12 0.7 -1.2 86 206 1.1 2.8 1001.6 0.0000 0.5000
06:22 0.8 -1.1 86 135 0.3 1.1 1001.7 0.0000 0.5000
06:33 0.9 -1 86 212 0.6 1.1 1001.9 0.0000 0.5000
06:42 1 -0.9 86 217 0.8 1.9 1002.1 0.0000 0.5000
06:52 1.1 -0.9 86 156 0.3 1.1 1002.1 0.0000 0.5000
07:02 1.3 -0.7 86 212 0.8 1.9 1002.2 0.0000 0.5000
07:13 1.3 -0.8 85 204 0.8 2.8 1002.3 0.0000 0.5000
07:23 1.4 -0.7 85 270 0.3 1.1 1002.5 0.0000 0.5000
07:32 1.3 -1 84 219 0.6 1.7 1002.6 0.0000 0.5000
07:43 1.4 -0.9 84 196 0.6 1.1 1002.7 0.0000 0.5000
07:53 1.5 -0.8 84 214 0.6 1.4 1002.8 0.0000 0.5000
08:03 1.6 -0.9 83 183 0.6 1.4 1002.9 0.0000 0.5000
08:13 1.7 -0.8 83 161 0.3 0.8 1003 0.0000 0.5000
08:23 1.7 -0.8 83 203 0.6 1.7 1003.1 0.0000 0.5000
08:33 1.9 -0.7 82 177 0.6 2.8 1003.4 0.0000 0.5000
08:43 1.9 -0.9 81 198 0.6 1.1 1003.9 0.0000 0.5000
08:53 1.9 -0.9 81 230 0.6 1.7 1004 0.0000 0.5000
09:03 2 -0.8 81 213 0.6 1.9 1004.2 0.0000 0.5000
09:13 2 -0.8 81 221 1.1 3.6 1004.2 0.1600 0.6000
09:23 2.2 -0.6 81 228 0.6 1.7 1004.5 0.1600 0.6000
09:33 2.3 -0.5 81 231 0.8 3.1 1004.6 0.3200 0.8000
09:43 2.3 -0.5 81 213 0.6 1.1 1004.7 0.3200 0.8000
09:53 2.3 -0.5 81 237 1.1 2.8 1004.8 0.4800 1.0000
10:03 2.3 -0.4 82 236 0.6 1.7 1005.2 0.4800 1.0000
10:13 2.4 -0.3 82 217 0.8 1.7 1005.2 0.3200 1.0000
10:21 2.5 -0.1 83 238 1.1 4.7 1005.3 0.3200 1.0000
10:31 2.6 -0.1 82 230 0.8 3.3 1005.5 0.3200 1.1000
10:41 2.8 0 82 231 0.8 1.9 1005.4 0.4800 1.3000
10:51 3 0.4 83 218 0.6 1.4 1005.6 0.4800 1.4000
11:01 3.3 0.7 83 221 0.6 1.1 1005.7 0.8000 1.8000
11:11 3.7 0.9 82 215 0.6 1.4 1005.6 1.1200 2.1000
11:21 3.8 0.8 81 270 0.3 1.1 1005.9 1.2800 2.2000
11:32 3.5 0.7 82 270 0.6 1.4 1006.1 0.9600 2.2000
11:41 3.3 0.7 83 232 0.8 1.4 1006.3 1.2800 2.6000
11:51 3.3 0.9 84 225 0.3 0.8 1006.4 1.2800 2.9000
12:02 3.3 0.9 84 260 0.8 1.9 1006.3 1.2800 3.2000
12:12 3.4 1.1 85 247 0.6 1.7 1006.6 1.1200 3.2000
12:21 3.5 1.2 85 333 0.6 1.7 1006.7 0.9600 3.2000
12:31 3.4 1.1 85 225 0.6 1.7 1007 1.6020 4.0000
12:42 3.2 1.1 86 270 0.6 1.4 1007.3 1.4420 4.2000
12:52 3.1 1 86 315 0.3 1.1 1007.3 1.2820 4.3000
13:02 3 0.9 86 270 0.3 1.1 1007.5 1.4420 4.7000
13:12 3.2 1.1 86 228 0.6 1.9 1007.6 1.6020 4.8000
13:22 3.6 1.5 86 270 0.6 1.4 1007.6 1.6020 4.8000
13:32 4.1 2 86 245 0.6 1.4 1007.6 0.9600 5.0000
13:42 4.4 2.3 86 329 0.6 1.1 1007.5 0.6400 5.0000
13:51 4.6 2.5 86 255 0.6 1.4 1007.4 0.4800 5.0000
14:02 5.2 3.1 86 284 0.8 2.2 1007.3 0.3200 5.0000
14:12 5.5 3.2 85 270 0.6 1.4 1007.4 0.1600 5.0000
14:23 5.6 2.8 82 288 0.6 1.4 1007.3 0.1600 5.0000
14:32 5.7 2.7 81 240 2.2 4.2 1007.4 0.0000 5.0000
14:42 5.7 3 83 229 1.4 2.8 1007.3 0.0000 5.0000
14:52 6 3.3 83 205 0.6 1.1 1007.4 0.0000 5.0000
15:03 6.2 3.4 82 182 0.6 1.4 1007.4 0.0000 5.0000
15:13 6.3 3.1 80 222 1.4 2.8 1007.4 0.0000 5.0000
15:22 6.4 3 79 222 0.6 1.7 1007.4 0.0000 5.0000
15:33 6.4 3 79 218 0.8 1.9 1007.4 0.0000 5.0000
15:43 6.6 3 78 225 0.6 1.9 1007.5 0.0000 5.0000
15:53 6.7 3 77 270 0.6 1.1 1007.5 0.0000 5.0000
16:02 6.8 3.1 77 270 0.6 1.7 1007.6 0.0000 5.0000
16:13 7.1 3.3 77 228 0.6 1.1 1007.7 0.0000 5.0000
16:23 7.1 3.2 76 270 0.6 1.4 1007.7 0.0000 5.0000
16:33 7 3.1 76 270 0.6 1.1 1007.7 0.0000 5.0000
16:43 7.1 3.2 76 270 0.6 1.4 1007.6 0.0000 5.0000
16:53 7.1 2.6 73 305 0.6 1.4 1007.8 0.0000 5.0000
17:03 7.1 3 75 254 0.6 1.1 1007.8 0.0000 5.0000
17:13 7.1 2.8 74 270 0.6 1.1 1008.1 0.0000 5.0000
17:23 7.1 2.8 74 245 0.6 1.1 1008.3 0.0000 5.0000
17:33 7 2.7 74 242 1.1 3.1 1008.3 0.0000 5.0000
17:43 6.6 2.7 76 241 1.4 3.1 1008.4 0.0000 5.0000
17:54 6.3 2.6 77 241 1.9 4.4 1008.7 0.0000 5.0000
18:04 6.1 2.6 78 255 0.6 1.7 1008.9 0.0000 5.0000
18:13 6 2.6 79 270 0.6 1.7 1009.1 0.0000 5.0000
18:18 5.9 2.5 79 233 0.3 1.7 1009.3 0.4810 5.5000
18:29 5.6 2.4 80 236 0.6 1.7 1009.5 0.4810 5.5000
18:39 5.3 2.5 82 270 0.6 2.2 1009.5 0.8020 5.8000
18:49 5 2.4 83 270 0.3 1.1 1009.5 0.8020 5.8000
18:59 4.8 2.2 83 270 0.6 1.1 1009.5 0.8020 5.8000
19:09 4.4 1.9 84 242 0.8 1.4 1009.7 0.8020 5.8000
19:19 4.2 1.7 84 237 1.1 1.9 1009.8 0.3210 5.8000
19:29 4 1.7 85 238 1.4 2.2 1009.9 0.3210 5.8000
19:40 3.8 1.5 85 241 1.7 2.5 1010
19:49 3.6 1.3 85 240 1.7 2.2 1010.2
19:59 3.5 1.4 86 238 1.1 1.7 1010.3
20:09 3.5 1.4 86 242 1.4 2.2 1010.4
20:20 3.4 1.3 86 238 1.4 2.2 1010.6
20:30 3.3 1.2 86 244 1.1 1.9 1010.7 0.0000 5.8000
20:40 3.4 1.3 86 241 1.1 1.7 1010.8 0.0000 5.8000
20:50 3.4 1.3 86 254 0.8 1.7 1011 0.0000 5.8000
21:00 3.5 1.4 86 296 0.6 0.8 1011.1 0.0000 5.8000
21:10 3.5 1.4 86 270 0.3 1.1 1011.3 0.0000 5.8000
21:20 3.5 1.4 86 255 0.6 1.1 1011.4 0.0000 5.8000
21:31 3.4 1.3 86 241 0.6 0.8 1011.5 0.0000 5.8000
21:40 3.4 1.3 86 229 0.3 1.1 1011.6 0.0000 5.8000
21:50 3.3 1.2 86 236 0.8 1.4 1011.6 0.0000 5.8000
22:01 3.1 1 86 245 1.1 1.9 1011.6 0.0000 5.8000
22:12 2.9 0.8 86 237 1.7 2.5 1011.7 0.0000 5.8000
22:22 2.8 0.7 86 239 1.1 1.9 1011.7 0.0000 5.8000
22:32 2.7 0.6 86 228 1.1 1.7 1011.7 0.0000 5.8000
22:42 2.6 0.7 87 232 1.7 2.5 1011.7 0.0000 5.8000
22:53 2.5 0.6 87 225 1.4 2.2 1011.8 0.0000 5.8000
23:02 2.4 0.5 87 236 1.7 2.2 1011.9 0.0000 5.8000
23:12 2.2 0.3 87 233 1.7 2.8 1011.8 0.0000 5.8000
23:23 2.3 0.4 87 234 1.1 2.2 1011.9 0.0000 5.8000
23:33 2.2 0.3 87 226 0.8 1.4 1012 0.0000 5.8000
23:42 2 0.1 87 230 1.1 1.9 1011.9 0.0000 5.8000
23:52 1.9 0 87 212 1.1 1.9 1012 0.0000 5.8000

DAY STATISTIC

2024-03-03
TEMPERATURE
AVERAGE
3.2
HIGH
7.1
16:13
LOW
0.5
06:02
PRESSURE
AVERAGE
1005.9
HIGH
1012.0
23:33
LOW
1000.8
00:00
DEWPOINT
AVERAGE
0.8
HIGH
3.4
15:03
LOW
-1.4
06:02
HUMIDITY
AVERAGE
84
HIGH
89
00:00
LOW
73
16:53
WIND SPEED
AVERAGE
0.8
HIGH
2.2
05:22
WIND GUST
AVERAGE
1.7
HIGH
4.7
10:21
WIND DIRECTION
PREVAILING
SW
59%
N
2.1
NE
0.0
E
0.7
SE
3.5
S
12.5
SW
59.0
W
18.1
NW
3.5
PRECIPITATION
RAIN HOUR
1.6
RAIN DAY
5.8
TEMPERATURE (°C)
LOW
0.5
HIGH
7.1
AVERAGE
3.2
PRESSURE (hpa)
LOW
1000.8
HIGH
1012.0
AVERAGE
1005.9
DEVICE